sensor_id;sensor_type;location;lat;lon;timestamp;P1;durP1;ratioP1;P2;durP2;ratioP2
28652;SDS011;15844;48.954;9.442;2022-08-01T00:02:46;36.00;;;34.45;;
28652;SDS011;15844;48.954;9.442;2022-08-01T00:05:47;37.92;;;36.17;;
28652;SDS011;15844;48.954;9.442;2022-08-01T00:08:47;36.10;;;34.47;;
28652;SDS011;15844;48.954;9.442;2022-08-01T00:11:48;34.58;;;32.97;;
28652;SDS011;15844;48.954;9.442;2022-08-01T00:14:48;32.70;;;31.27;;
28652;SDS011;15844;48.954;9.442;2022-08-01T00:17:48;31.20;;;29.95;;
28652;SDS011;15844;48.954;9.442;2022-08-01T00:20:49;24.67;;;23.63;;
28652;SDS011;15844;48.954;9.442;2022-08-01T00:23:49;17.27;;;16.67;;
28652;SDS011;15844;48.954;9.442;2022-08-01T00:26:49;17.17;;;16.58;;
28652;SDS011;15844;48.954;9.442;2022-08-01T00:29:50;18.48;;;17.77;;
28652;SDS011;15844;48.954;9.442;2022-08-01T00:32:50;18.25;;;17.45;;
28652;SDS011;15844;48.954;9.442;2022-08-01T00:35:51;23.13;;;22.23;;
28652;SDS011;15844;48.954;9.442;2022-08-01T00:38:51;26.77;;;25.38;;
28652;SDS011;15844;48.954;9.442;2022-08-01T00:41:51;26.35;;;25.25;;
28652;SDS011;15844;48.954;9.442;2022-08-01T00:44:52;25.98;;;24.77;;
28652;SDS011;15844;48.954;9.442;2022-08-01T00:47:52;23.45;;;22.50;;
28652;SDS011;15844;48.954;9.442;2022-08-01T00:50:52;22.88;;;21.92;;
28652;SDS011;15844;48.954;9.442;2022-08-01T00:53:53;18.80;;;18.00;;
28652;SDS011;15844;48.954;9.442;2022-08-01T00:56:54;15.90;;;15.27;;
28652;SDS011;15844;48.954;9.442;2022-08-01T00:59:54;16.92;;;16.08;;
28652;SDS011;15844;48.954;9.442;2022-08-01T01:02:55;16.15;;;15.55;;
28652;SDS011;15844;48.954;9.442;2022-08-01T01:09:22;15.75;;;15.15;;
28652;SDS011;15844;48.954;9.442;2022-08-01T01:15:36;14.32;;;13.82;;
28652;SDS011;15844;48.954;9.442;2022-08-01T01:18:45;12.85;;;12.45;;
28652;SDS011;15844;48.954;9.442;2022-08-01T01:21:58;15.63;;;15.13;;
28652;SDS011;15844;48.954;9.442;2022-08-01T01:32:05;16.05;;;15.45;;
28652;SDS011;15844;48.954;9.442;2022-08-01T01:35:09;17.10;;;16.38;;
28652;SDS011;15844;48.954;9.442;2022-08-01T01:38:15;23.45;;;22.52;;
28652;SDS011;15844;48.954;9.442;2022-08-01T01:41:18;20.45;;;19.63;;
28652;SDS011;15844;48.954;9.442;2022-08-01T01:44:18;18.58;;;17.83;;
28652;SDS011;15844;48.954;9.442;2022-08-01T01:47:19;15.15;;;14.65;;
28652;SDS011;15844;48.954;9.442;2022-08-01T01:50:21;16.05;;;15.45;;
28652;SDS011;15844;48.954;9.442;2022-08-01T01:53:22;16.48;;;15.90;;
28652;SDS011;15844;48.954;9.442;2022-08-01T01:56:23;15.98;;;15.40;;
28652;SDS011;15844;48.954;9.442;2022-08-01T01:59:24;15.75;;;15.25;;
28652;SDS011;15844;48.954;9.442;2022-08-01T02:02:26;21.15;;;20.27;;
28652;SDS011;15844;48.954;9.442;2022-08-01T02:05:27;18.65;;;17.85;;
28652;SDS011;15844;48.954;9.442;2022-08-01T02:08:28;19.60;;;18.90;;
28652;SDS011;15844;48.954;9.442;2022-08-01T02:11:30;20.33;;;19.42;;
28652;SDS011;15844;48.954;9.442;2022-08-01T02:14:31;23.63;;;22.58;;
28652;SDS011;15844;48.954;9.442;2022-08-01T02:17:33;28.27;;;27.05;;
28652;SDS011;15844;48.954;9.442;2022-08-01T02:20:38;28.65;;;27.35;;
28652;SDS011;15844;48.954;9.442;2022-08-01T02:23:38;28.15;;;26.85;;
28652;SDS011;15844;48.954;9.442;2022-08-01T02:26:40;51.47;;;49.08;;
28652;SDS011;15844;48.954;9.442;2022-08-01T02:29:43;41.80;;;39.88;;
28652;SDS011;15844;48.954;9.442;2022-08-01T02:32:49;37.15;;;35.47;;
28652;SDS011;15844;48.954;9.442;2022-08-01T02:35:52;41.95;;;40.08;;
28652;SDS011;15844;48.954;9.442;2022-08-01T02:38:54;41.30;;;39.33;;
28652;SDS011;15844;48.954;9.442;2022-08-01T02:41:57;39.30;;;37.50;;
28652;SDS011;15844;48.954;9.442;2022-08-01T02:45:00;37.35;;;35.65;;
28652;SDS011;15844;48.954;9.442;2022-08-01T02:48:13;30.83;;;29.50;;
28652;SDS011;15844;48.954;9.442;2022-08-01T02:51:14;33.63;;;31.73;;
28652;SDS011;15844;48.954;9.442;2022-08-01T02:54:16;37.90;;;36.17;;
28652;SDS011;15844;48.954;9.442;2022-08-01T02:57:17;35.30;;;33.80;;
28652;SDS011;15844;48.954;9.442;2022-08-01T03:00:18;47.33;;;45.15;;
28652;SDS011;15844;48.954;9.442;2022-08-01T03:03:19;47.25;;;45.08;;
28652;SDS011;15844;48.954;9.442;2022-08-01T03:06:20;47.72;;;45.40;;
28652;SDS011;15844;48.954;9.442;2022-08-01T03:09:20;39.15;;;37.33;;
28652;SDS011;15844;48.954;9.442;2022-08-01T03:12:23;44.65;;;42.45;;
28652;SDS011;15844;48.954;9.442;2022-08-01T03:15:25;34.45;;;32.88;;
28652;SDS011;15844;48.954;9.442;2022-08-01T03:18:27;48.30;;;45.95;;
28652;SDS011;15844;48.954;9.442;2022-08-01T03:21:29;40.95;;;39.08;;
28652;SDS011;15844;48.954;9.442;2022-08-01T03:24:30;94.30;;;89.80;;
28652;SDS011;15844;48.954;9.442;2022-08-01T03:27:31;70.32;;;67.05;;
28652;SDS011;15844;48.954;9.442;2022-08-01T03:30:32;69.18;;;65.80;;
28652;SDS011;15844;48.954;9.442;2022-08-01T03:33:33;104.32;;;99.32;;
28652;SDS011;15844;48.954;9.442;2022-08-01T03:36:33;97.38;;;92.63;;
28652;SDS011;15844;48.954;9.442;2022-08-01T03:39:40;79.78;;;75.28;;
28652;SDS011;15844;48.954;9.442;2022-08-01T03:42:59;105.20;;;100.20;;
28652;SDS011;15844;48.954;9.442;2022-08-01T03:46:08;114.97;;;109.10;;
28652;SDS011;15844;48.954;9.442;2022-08-01T03:49:11;154.43;;;146.93;;
28652;SDS011;15844;48.954;9.442;2022-08-01T03:52:15;155.65;;;148.13;;
28652;SDS011;15844;48.954;9.442;2022-08-01T03:55:15;162.48;;;154.63;;
28652;SDS011;15844;48.954;9.442;2022-08-01T03:58:17;171.18;;;162.98;;
28652;SDS011;15844;48.954;9.442;2022-08-01T04:01:17;155.57;;;148.02;;
28652;SDS011;15844;48.954;9.442;2022-08-01T04:04:18;166.55;;;158.52;;
28652;SDS011;15844;48.954;9.442;2022-08-01T04:07:26;149.68;;;142.52;;
28652;SDS011;15844;48.954;9.442;2022-08-01T04:10:28;154.20;;;146.65;;
28652;SDS011;15844;48.954;9.442;2022-08-01T04:13:30;146.25;;;139.07;;
28652;SDS011;15844;48.954;9.442;2022-08-01T04:16:31;140.73;;;133.98;;
28652;SDS011;15844;48.954;9.442;2022-08-01T04:19:31;157.95;;;150.45;;
28652;SDS011;15844;48.954;9.442;2022-08-01T04:22:31;142.57;;;135.73;;
28652;SDS011;15844;48.954;9.442;2022-08-01T04:25:35;147.88;;;140.68;;
28652;SDS011;15844;48.954;9.442;2022-08-01T04:28:37;142.98;;;136.05;;
28652;SDS011;15844;48.954;9.442;2022-08-01T04:31:40;127.78;;;121.28;;
28652;SDS011;15844;48.954;9.442;2022-08-01T04:34:42;115.85;;;110.13;;
28652;SDS011;15844;48.954;9.442;2022-08-01T04:37:46;106.07;;;100.88;;
28652;SDS011;15844;48.954;9.442;2022-08-01T04:40:49;91.00;;;86.43;;
28652;SDS011;15844;48.954;9.442;2022-08-01T04:43:50;100.07;;;95.10;;
28652;SDS011;15844;48.954;9.442;2022-08-01T04:46:52;107.70;;;102.57;;
28652;SDS011;15844;48.954;9.442;2022-08-01T04:49:54;123.07;;;117.00;;
28652;SDS011;15844;48.954;9.442;2022-08-01T04:52:56;99.18;;;94.43;;
28652;SDS011;15844;48.954;9.442;2022-08-01T04:55:56;98.53;;;93.85;;
28652;SDS011;15844;48.954;9.442;2022-08-01T04:58:57;96.47;;;91.63;;
28652;SDS011;15844;48.954;9.442;2022-08-01T05:02:17;90.88;;;86.47;;
28652;SDS011;15844;48.954;9.442;2022-08-01T05:05:18;104.40;;;99.03;;
28652;SDS011;15844;48.954;9.442;2022-08-01T05:08:20;111.72;;;106.40;;
28652;SDS011;15844;48.954;9.442;2022-08-01T05:11:20;88.05;;;83.57;;
28652;SDS011;15844;48.954;9.442;2022-08-01T05:14:22;62.05;;;59.13;;
28652;SDS011;15844;48.954;9.442;2022-08-01T05:17:22;40.88;;;39.08;;
28652;SDS011;15844;48.954;9.442;2022-08-01T05:20:22;42.35;;;39.95;;
28652;SDS011;15844;48.954;9.442;2022-08-01T05:23:22;41.95;;;40.03;;
28652;SDS011;15844;48.954;9.442;2022-08-01T05:26:23;48.30;;;46.13;;
28652;SDS011;15844;48.954;9.442;2022-08-01T05:29:23;53.55;;;51.10;;
28652;SDS011;15844;48.954;9.442;2022-08-01T05:32:24;55.17;;;52.63;;
28652;SDS011;15844;48.954;9.442;2022-08-01T05:35:24;54.85;;;52.17;;
28652;SDS011;15844;48.954;9.442;2022-08-01T05:38:25;50.25;;;47.95;;
28652;SDS011;15844;48.954;9.442;2022-08-01T05:41:25;57.88;;;55.05;;
28652;SDS011;15844;48.954;9.442;2022-08-01T05:44:26;52.03;;;49.53;;
28652;SDS011;15844;48.954;9.442;2022-08-01T05:47:26;40.30;;;38.50;;
28652;SDS011;15844;48.954;9.442;2022-08-01T05:50:27;27.77;;;26.58;;
28652;SDS011;15844;48.954;9.442;2022-08-01T05:53:27;24.30;;;23.17;;
28652;SDS011;15844;48.954;9.442;2022-08-01T05:56:28;17.77;;;16.90;;
28652;SDS011;15844;48.954;9.442;2022-08-01T05:59:28;14.13;;;13.65;;
28652;SDS011;15844;48.954;9.442;2022-08-01T06:02:29;13.63;;;13.13;;
28652;SDS011;15844;48.954;9.442;2022-08-01T06:05:29;14.63;;;14.02;;
28652;SDS011;15844;48.954;9.442;2022-08-01T06:08:30;14.73;;;13.98;;
28652;SDS011;15844;48.954;9.442;2022-08-01T06:11:31;14.50;;;14.00;;
28652;SDS011;15844;48.954;9.442;2022-08-01T06:14:31;16.77;;;15.57;;
28652;SDS011;15844;48.954;9.442;2022-08-01T06:17:31;13.20;;;12.60;;
28652;SDS011;15844;48.954;9.442;2022-08-01T06:20:31;17.00;;;16.30;;
28652;SDS011;15844;48.954;9.442;2022-08-01T06:23:32;16.63;;;15.73;;
28652;SDS011;15844;48.954;9.442;2022-08-01T06:26:32;18.50;;;17.67;;
28652;SDS011;15844;48.954;9.442;2022-08-01T06:29:32;18.55;;;17.73;;
28652;SDS011;15844;48.954;9.442;2022-08-01T06:32:33;22.40;;;21.17;;
28652;SDS011;15844;48.954;9.442;2022-08-01T06:35:33;17.42;;;16.73;;
28652;SDS011;15844;48.954;9.442;2022-08-01T06:38:34;19.30;;;18.10;;
28652;SDS011;15844;48.954;9.442;2022-08-01T06:41:34;14.20;;;13.80;;
28652;SDS011;15844;48.954;9.442;2022-08-01T06:44:35;25.80;;;24.60;;
28652;SDS011;15844;48.954;9.442;2022-08-01T06:47:39;23.60;;;22.65;;
28652;SDS011;15844;48.954;9.442;2022-08-01T06:50:40;26.70;;;25.60;;
28652;SDS011;15844;48.954;9.442;2022-08-01T06:53:40;26.23;;;24.77;;
28652;SDS011;15844;48.954;9.442;2022-08-01T06:56:40;20.70;;;19.77;;
28652;SDS011;15844;48.954;9.442;2022-08-01T06:59:41;17.63;;;16.73;;
28652;SDS011;15844;48.954;9.442;2022-08-01T07:02:41;28.95;;;27.75;;
28652;SDS011;15844;48.954;9.442;2022-08-01T07:05:42;33.80;;;31.88;;
28652;SDS011;15844;48.954;9.442;2022-08-01T07:08:42;38.03;;;36.22;;
28652;SDS011;15844;48.954;9.442;2022-08-01T07:11:43;39.55;;;37.75;;
28652;SDS011;15844;48.954;9.442;2022-08-01T07:14:43;42.63;;;40.53;;
28652;SDS011;15844;48.954;9.442;2022-08-01T07:17:43;35.42;;;33.88;;
28652;SDS011;15844;48.954;9.442;2022-08-01T07:20:44;31.92;;;30.58;;
28652;SDS011;15844;48.954;9.442;2022-08-01T07:23:46;34.15;;;32.63;;
28652;SDS011;15844;48.954;9.442;2022-08-01T07:26:47;31.25;;;29.85;;
28652;SDS011;15844;48.954;9.442;2022-08-01T07:29:48;30.48;;;29.17;;
28652;SDS011;15844;48.954;9.442;2022-08-01T07:32:48;32.28;;;30.73;;
28652;SDS011;15844;48.954;9.442;2022-08-01T07:35:48;29.23;;;28.08;;
28652;SDS011;15844;48.954;9.442;2022-08-01T07:38:49;31.25;;;29.77;;
28652;SDS011;15844;48.954;9.442;2022-08-01T07:41:49;32.80;;;31.35;;
28652;SDS011;15844;48.954;9.442;2022-08-01T07:44:49;30.17;;;28.88;;
28652;SDS011;15844;48.954;9.442;2022-08-01T07:47:50;34.50;;;33.03;;
28652;SDS011;15844;48.954;9.442;2022-08-01T07:50:50;35.65;;;34.05;;
28652;SDS011;15844;48.954;9.442;2022-08-01T07:53:52;33.60;;;32.00;;
28652;SDS011;15844;48.954;9.442;2022-08-01T07:56:52;31.63;;;30.27;;
28652;SDS011;15844;48.954;9.442;2022-08-01T07:59:52;29.85;;;28.60;;
28652;SDS011;15844;48.954;9.442;2022-08-01T08:02:52;25.80;;;24.55;;
28652;SDS011;15844;48.954;9.442;2022-08-01T08:05:53;18.88;;;18.20;;
28652;SDS011;15844;48.954;9.442;2022-08-01T08:08:54;20.60;;;19.90;;
28652;SDS011;15844;48.954;9.442;2022-08-01T08:11:54;18.60;;;18.00;;
28652;SDS011;15844;48.954;9.442;2022-08-01T08:14:54;19.88;;;19.17;;
28652;SDS011;15844;48.954;9.442;2022-08-01T08:17:55;26.70;;;25.60;;
28652;SDS011;15844;48.954;9.442;2022-08-01T08:20:55;27.38;;;26.27;;
28652;SDS011;15844;48.954;9.442;2022-08-01T08:23:56;26.92;;;25.73;;
28652;SDS011;15844;48.954;9.442;2022-08-01T08:27:15;28.92;;;27.77;;
28652;SDS011;15844;48.954;9.442;2022-08-01T08:30:15;29.48;;;28.25;;
28652;SDS011;15844;48.954;9.442;2022-08-01T08:33:16;26.98;;;25.90;;
28652;SDS011;15844;48.954;9.442;2022-08-01T08:36:17;28.33;;;27.10;;
28652;SDS011;15844;48.954;9.442;2022-08-01T08:39:17;27.13;;;26.05;;
28652;SDS011;15844;48.954;9.442;2022-08-01T08:42:18;28.05;;;26.88;;
28652;SDS011;15844;48.954;9.442;2022-08-01T08:45:19;27.50;;;26.40;;
28652;SDS011;15844;48.954;9.442;2022-08-01T08:48:19;21.98;;;21.08;;
28652;SDS011;15844;48.954;9.442;2022-08-01T08:51:19;19.20;;;18.50;;
28652;SDS011;15844;48.954;9.442;2022-08-01T08:54:21;17.90;;;17.30;;
28652;SDS011;15844;48.954;9.442;2022-08-01T08:57:23;17.13;;;16.50;;
28652;SDS011;15844;48.954;9.442;2022-08-01T09:00:24;19.83;;;19.00;;
28652;SDS011;15844;48.954;9.442;2022-08-01T09:03:24;17.30;;;16.67;;
28652;SDS011;15844;48.954;9.442;2022-08-01T09:06:25;17.83;;;17.23;;
28652;SDS011;15844;48.954;9.442;2022-08-01T09:09:25;18.23;;;17.55;;
28652;SDS011;15844;48.954;9.442;2022-08-01T09:12:25;18.50;;;17.80;;
28652;SDS011;15844;48.954;9.442;2022-08-01T09:15:37;15.93;;;15.43;;
28652;SDS011;15844;48.954;9.442;2022-08-01T09:18:41;16.95;;;16.38;;
28652;SDS011;15844;48.954;9.442;2022-08-01T09:25:09;18.85;;;18.15;;
28652;SDS011;15844;48.954;9.442;2022-08-01T09:28:10;19.25;;;18.58;;
28652;SDS011;15844;48.954;9.442;2022-08-01T09:31:11;18.30;;;17.63;;
28652;SDS011;15844;48.954;9.442;2022-08-01T09:34:13;18.98;;;18.35;;
28652;SDS011;15844;48.954;9.442;2022-08-01T09:37:14;17.30;;;16.63;;
28652;SDS011;15844;48.954;9.442;2022-08-01T09:40:17;20.20;;;19.40;;
28652;SDS011;15844;48.954;9.442;2022-08-01T09:43:19;19.73;;;18.85;;
28652;SDS011;15844;48.954;9.442;2022-08-01T09:46:20;19.67;;;18.98;;
28652;SDS011;15844;48.954;9.442;2022-08-01T09:49:27;19.65;;;18.95;;
28652;SDS011;15844;48.954;9.442;2022-08-01T09:52:29;21.88;;;20.27;;
28652;SDS011;15844;48.954;9.442;2022-08-01T09:55:29;18.23;;;17.63;;
28652;SDS011;15844;48.954;9.442;2022-08-01T09:58:29;20.52;;;19.42;;
28652;SDS011;15844;48.954;9.442;2022-08-01T10:01:49;21.15;;;20.25;;
28652;SDS011;15844;48.954;9.442;2022-08-01T10:04:49;21.45;;;20.60;;
28652;SDS011;15844;48.954;9.442;2022-08-01T10:07:55;20.15;;;19.25;;
28652;SDS011;15844;48.954;9.442;2022-08-01T10:11:06;16.67;;;16.02;;
28652;SDS011;15844;48.954;9.442;2022-08-01T10:14:11;18.05;;;17.35;;
28652;SDS011;15844;48.954;9.442;2022-08-01T10:17:15;19.60;;;18.95;;
28652;SDS011;15844;48.954;9.442;2022-08-01T10:20:17;18.55;;;17.85;;
28652;SDS011;15844;48.954;9.442;2022-08-01T10:23:19;20.42;;;19.55;;
28652;SDS011;15844;48.954;9.442;2022-08-01T10:26:20;19.60;;;18.65;;
28652;SDS011;15844;48.954;9.442;2022-08-01T10:29:21;19.73;;;19.02;;
28652;SDS011;15844;48.954;9.442;2022-08-01T10:32:23;21.63;;;20.83;;
28652;SDS011;15844;48.954;9.442;2022-08-01T10:35:23;19.75;;;19.05;;
28652;SDS011;15844;48.954;9.442;2022-08-01T10:38:23;20.08;;;19.13;;
28652;SDS011;15844;48.954;9.442;2022-08-01T10:41:24;21.30;;;20.52;;
28652;SDS011;15844;48.954;9.442;2022-08-01T10:44:26;24.30;;;23.33;;
28652;SDS011;15844;48.954;9.442;2022-08-01T10:47:29;23.83;;;22.88;;
28652;SDS011;15844;48.954;9.442;2022-08-01T10:50:39;23.30;;;22.40;;
28652;SDS011;15844;48.954;9.442;2022-08-01T10:53:46;27.48;;;26.35;;
28652;SDS011;15844;48.954;9.442;2022-08-01T10:56:48;23.23;;;22.33;;
28652;SDS011;15844;48.954;9.442;2022-08-01T10:59:50;28.40;;;27.20;;
28652;SDS011;15844;48.954;9.442;2022-08-01T11:02:58;29.70;;;28.40;;
28652;SDS011;15844;48.954;9.442;2022-08-01T11:06:03;32.75;;;31.38;;
28652;SDS011;15844;48.954;9.442;2022-08-01T11:09:26;40.03;;;38.22;;
28652;SDS011;15844;48.954;9.442;2022-08-01T11:12:39;37.80;;;36.17;;
28652;SDS011;15844;48.954;9.442;2022-08-01T11:15:41;32.58;;;31.27;;
28652;SDS011;15844;48.954;9.442;2022-08-01T11:18:49;21.08;;;20.27;;
28652;SDS011;15844;48.954;9.442;2022-08-01T11:24:54;15.27;;;14.70;;
28652;SDS011;15844;48.954;9.442;2022-08-01T11:31:24;14.73;;;14.27;;
28652;SDS011;15844;48.954;9.442;2022-08-01T11:37:55;17.40;;;16.70;;
28652;SDS011;15844;48.954;9.442;2022-08-01T11:44:26;26.88;;;25.83;;
28652;SDS011;15844;48.954;9.442;2022-08-01T11:47:43;29.58;;;28.48;;
28652;SDS011;15844;48.954;9.442;2022-08-01T11:50:44;31.85;;;30.45;;
28652;SDS011;15844;48.954;9.442;2022-08-01T11:53:46;31.40;;;30.20;;
28652;SDS011;15844;48.954;9.442;2022-08-01T11:56:46;29.05;;;27.92;;
28652;SDS011;15844;48.954;9.442;2022-08-01T11:59:48;32.15;;;30.75;;
28652;SDS011;15844;48.954;9.442;2022-08-01T12:02:58;31.27;;;29.98;;
28652;SDS011;15844;48.954;9.442;2022-08-01T12:06:00;29.20;;;28.00;;
28652;SDS011;15844;48.954;9.442;2022-08-01T12:09:14;31.80;;;30.52;;
28652;SDS011;15844;48.954;9.442;2022-08-01T12:12:24;29.10;;;27.90;;
28652;SDS011;15844;48.954;9.442;2022-08-01T12:15:28;27.50;;;26.48;;
28652;SDS011;15844;48.954;9.442;2022-08-01T12:18:30;28.23;;;27.10;;
28652;SDS011;15844;48.954;9.442;2022-08-01T12:21:38;32.30;;;31.00;;
28652;SDS011;15844;48.954;9.442;2022-08-01T12:24:39;27.53;;;26.40;;
28652;SDS011;15844;48.954;9.442;2022-08-01T12:27:41;30.30;;;29.08;;
28652;SDS011;15844;48.954;9.442;2022-08-01T12:30:43;32.88;;;31.38;;
28652;SDS011;15844;48.954;9.442;2022-08-01T12:33:47;30.20;;;28.92;;
28652;SDS011;15844;48.954;9.442;2022-08-01T12:36:47;29.20;;;28.00;;
28652;SDS011;15844;48.954;9.442;2022-08-01T12:39:48;32.80;;;31.43;;
28652;SDS011;15844;48.954;9.442;2022-08-01T12:42:50;28.90;;;27.75;;
28652;SDS011;15844;48.954;9.442;2022-08-01T12:45:53;35.35;;;33.90;;
28652;SDS011;15844;48.954;9.442;2022-08-01T12:48:54;32.85;;;31.52;;
28652;SDS011;15844;48.954;9.442;2022-08-01T12:51:54;28.52;;;27.40;;
28652;SDS011;15844;48.954;9.442;2022-08-01T12:55:08;31.08;;;29.80;;
28652;SDS011;15844;48.954;9.442;2022-08-01T12:58:14;31.25;;;30.02;;
28652;SDS011;15844;48.954;9.442;2022-08-01T13:01:14;30.30;;;28.98;;
28652;SDS011;15844;48.954;9.442;2022-08-01T13:04:15;28.70;;;27.50;;
28652;SDS011;15844;48.954;9.442;2022-08-01T13:07:15;28.60;;;27.50;;
28652;SDS011;15844;48.954;9.442;2022-08-01T13:10:26;21.85;;;21.05;;
28652;SDS011;15844;48.954;9.442;2022-08-01T13:13:37;23.25;;;22.35;;
28652;SDS011;15844;48.954;9.442;2022-08-01T13:16:45;19.45;;;18.65;;
28652;SDS011;15844;48.954;9.442;2022-08-01T13:19:46;20.38;;;19.70;;
28652;SDS011;15844;48.954;9.442;2022-08-01T13:22:48;24.08;;;23.23;;
28652;SDS011;15844;48.954;9.442;2022-08-01T13:25:50;28.98;;;27.80;;
28652;SDS011;15844;48.954;9.442;2022-08-01T13:29:07;27.83;;;26.77;;
28652;SDS011;15844;48.954;9.442;2022-08-01T13:32:19;28.58;;;27.48;;
28652;SDS011;15844;48.954;9.442;2022-08-01T13:35:21;27.52;;;26.50;;
28652;SDS011;15844;48.954;9.442;2022-08-01T13:38:21;28.77;;;27.67;;
28652;SDS011;15844;48.954;9.442;2022-08-01T13:41:41;25.17;;;24.25;;
28652;SDS011;15844;48.954;9.442;2022-08-01T13:44:41;22.85;;;21.98;;
28652;SDS011;15844;48.954;9.442;2022-08-01T13:47:43;25.48;;;24.48;;
28652;SDS011;15844;48.954;9.442;2022-08-01T13:50:43;23.35;;;22.40;;
28652;SDS011;15844;48.954;9.442;2022-08-01T13:53:43;24.17;;;23.27;;
28652;SDS011;15844;48.954;9.442;2022-08-01T13:56:44;31.93;;;30.50;;
28652;SDS011;15844;48.954;9.442;2022-08-01T13:59:44;35.47;;;34.03;;
28652;SDS011;15844;48.954;9.442;2022-08-01T14:02:44;33.58;;;32.15;;
28652;SDS011;15844;48.954;9.442;2022-08-01T14:05:45;31.02;;;29.73;;
28652;SDS011;15844;48.954;9.442;2022-08-01T14:08:46;34.60;;;33.10;;
28652;SDS011;15844;48.954;9.442;2022-08-01T14:11:46;25.40;;;24.45;;
28652;SDS011;15844;48.954;9.442;2022-08-01T14:14:47;18.17;;;17.42;;
28652;SDS011;15844;48.954;9.442;2022-08-01T14:17:47;20.20;;;19.50;;
28652;SDS011;15844;48.954;9.442;2022-08-01T14:20:47;20.50;;;19.75;;
28652;SDS011;15844;48.954;9.442;2022-08-01T14:23:48;20.33;;;19.52;;
28652;SDS011;15844;48.954;9.442;2022-08-01T14:26:48;19.83;;;19.03;;
28652;SDS011;15844;48.954;9.442;2022-08-01T14:29:49;26.98;;;25.77;;
28652;SDS011;15844;48.954;9.442;2022-08-01T14:32:49;30.33;;;29.13;;
28652;SDS011;15844;48.954;9.442;2022-08-01T14:35:49;32.20;;;30.70;;
28652;SDS011;15844;48.954;9.442;2022-08-01T14:38:50;32.70;;;31.33;;
28652;SDS011;15844;48.954;9.442;2022-08-01T14:41:50;21.98;;;21.17;;
28652;SDS011;15844;48.954;9.442;2022-08-01T14:44:50;19.23;;;18.63;;
28652;SDS011;15844;48.954;9.442;2022-08-01T14:47:51;20.80;;;19.90;;
28652;SDS011;15844;48.954;9.442;2022-08-01T14:50:51;21.42;;;20.63;;
28652;SDS011;15844;48.954;9.442;2022-08-01T14:53:51;24.60;;;23.63;;
28652;SDS011;15844;48.954;9.442;2022-08-01T14:56:53;21.17;;;20.45;;
28652;SDS011;15844;48.954;9.442;2022-08-01T14:59:53;20.83;;;20.02;;
28652;SDS011;15844;48.954;9.442;2022-08-01T15:02:53;21.02;;;20.23;;
28652;SDS011;15844;48.954;9.442;2022-08-01T15:05:54;20.98;;;20.10;;
28652;SDS011;15844;48.954;9.442;2022-08-01T15:08:54;21.80;;;20.90;;
28652;SDS011;15844;48.954;9.442;2022-08-01T15:11:55;25.58;;;24.50;;
28652;SDS011;15844;48.954;9.442;2022-08-01T15:14:55;25.95;;;24.85;;
28652;SDS011;15844;48.954;9.442;2022-08-01T15:17:56;28.83;;;27.73;;
28652;SDS011;15844;48.954;9.442;2022-08-01T15:20:56;27.73;;;26.67;;
28652;SDS011;15844;48.954;9.442;2022-08-01T15:23:57;25.55;;;24.55;;
28652;SDS011;15844;48.954;9.442;2022-08-01T15:26:57;21.52;;;20.83;;
28652;SDS011;15844;48.954;9.442;2022-08-01T15:29:58;23.88;;;22.95;;
28652;SDS011;15844;48.954;9.442;2022-08-01T15:32:58;21.85;;;21.05;;
28652;SDS011;15844;48.954;9.442;2022-08-01T15:35:59;22.65;;;21.75;;
28652;SDS011;15844;48.954;9.442;2022-08-01T15:38:59;31.75;;;30.45;;
28652;SDS011;15844;48.954;9.442;2022-08-01T15:42:00;28.70;;;27.52;;
28652;SDS011;15844;48.954;9.442;2022-08-01T15:48:04;29.13;;;28.02;;
28652;SDS011;15844;48.954;9.442;2022-08-01T15:51:04;30.65;;;29.38;;
28652;SDS011;15844;48.954;9.442;2022-08-01T15:54:04;28.50;;;27.38;;
28652;SDS011;15844;48.954;9.442;2022-08-01T15:57:06;32.17;;;30.88;;
28652;SDS011;15844;48.954;9.442;2022-08-01T16:00:07;34.22;;;32.75;;
28652;SDS011;15844;48.954;9.442;2022-08-01T16:03:11;35.63;;;34.03;;
28652;SDS011;15844;48.954;9.442;2022-08-01T16:06:12;33.90;;;32.50;;
28652;SDS011;15844;48.954;9.442;2022-08-01T16:09:12;32.17;;;30.83;;
28652;SDS011;15844;48.954;9.442;2022-08-01T16:12:13;34.47;;;33.03;;
28652;SDS011;15844;48.954;9.442;2022-08-01T16:15:13;33.95;;;32.50;;
28652;SDS011;15844;48.954;9.442;2022-08-01T16:18:13;29.67;;;28.48;;
28652;SDS011;15844;48.954;9.442;2022-08-01T16:21:15;28.05;;;26.95;;
28652;SDS011;15844;48.954;9.442;2022-08-01T16:24:15;29.70;;;28.50;;
28652;SDS011;15844;48.954;9.442;2022-08-01T16:27:16;30.65;;;29.40;;
28652;SDS011;15844;48.954;9.442;2022-08-01T16:30:17;32.58;;;31.10;;
28652;SDS011;15844;48.954;9.442;2022-08-01T16:33:17;32.83;;;31.50;;
28652;SDS011;15844;48.954;9.442;2022-08-01T16:36:17;34.25;;;32.80;;
28652;SDS011;15844;48.954;9.442;2022-08-01T16:39:18;32.97;;;31.65;;
28652;SDS011;15844;48.954;9.442;2022-08-01T16:42:18;29.38;;;28.17;;
28652;SDS011;15844;48.954;9.442;2022-08-01T16:45:18;29.42;;;28.23;;
28652;SDS011;15844;48.954;9.442;2022-08-01T16:48:20;29.38;;;28.23;;
28652;SDS011;15844;48.954;9.442;2022-08-01T16:51:20;25.50;;;24.45;;
28652;SDS011;15844;48.954;9.442;2022-08-01T16:54:21;28.73;;;27.42;;
28652;SDS011;15844;48.954;9.442;2022-08-01T16:57:21;27.88;;;26.58;;
28652;SDS011;15844;48.954;9.442;2022-08-01T17:00:21;28.40;;;27.30;;
28652;SDS011;15844;48.954;9.442;2022-08-01T17:03:25;26.42;;;25.42;;
28652;SDS011;15844;48.954;9.442;2022-08-01T17:06:25;24.08;;;23.23;;
28652;SDS011;15844;48.954;9.442;2022-08-01T17:09:26;27.55;;;26.50;;
28652;SDS011;15844;48.954;9.442;2022-08-01T17:12:26;23.05;;;22.08;;
28652;SDS011;15844;48.954;9.442;2022-08-01T17:15:27;20.83;;;20.08;;
28652;SDS011;15844;48.954;9.442;2022-08-01T17:18:28;23.50;;;22.65;;
28652;SDS011;15844;48.954;9.442;2022-08-01T17:21:28;23.58;;;22.73;;
28652;SDS011;15844;48.954;9.442;2022-08-01T17:24:29;30.88;;;29.33;;
28652;SDS011;15844;48.954;9.442;2022-08-01T17:27:29;23.48;;;22.63;;
28652;SDS011;15844;48.954;9.442;2022-08-01T17:30:30;18.83;;;18.15;;
28652;SDS011;15844;48.954;9.442;2022-08-01T17:33:30;18.50;;;17.90;;
28652;SDS011;15844;48.954;9.442;2022-08-01T17:36:31;17.85;;;17.30;;
28652;SDS011;15844;48.954;9.442;2022-08-01T17:39:31;14.60;;;14.20;;
28652;SDS011;15844;48.954;9.442;2022-08-01T17:42:31;16.55;;;15.95;;
28652;SDS011;15844;48.954;9.442;2022-08-01T17:45:32;16.33;;;15.82;;
28652;SDS011;15844;48.954;9.442;2022-08-01T17:48:33;17.52;;;16.70;;
28652;SDS011;15844;48.954;9.442;2022-08-01T17:51:33;18.77;;;18.17;;
28652;SDS011;15844;48.954;9.442;2022-08-01T17:54:34;18.30;;;17.70;;
28652;SDS011;15844;48.954;9.442;2022-08-01T17:57:34;17.85;;;17.15;;
28652;SDS011;15844;48.954;9.442;2022-08-01T18:00:35;19.05;;;18.25;;
28652;SDS011;15844;48.954;9.442;2022-08-01T18:03:37;18.45;;;17.85;;
28652;SDS011;15844;48.954;9.442;2022-08-01T18:06:37;17.80;;;17.20;;
28652;SDS011;15844;48.954;9.442;2022-08-01T18:09:38;14.30;;;13.90;;
28652;SDS011;15844;48.954;9.442;2022-08-01T18:12:38;14.68;;;14.18;;
28652;SDS011;15844;48.954;9.442;2022-08-01T18:15:38;14.88;;;14.43;;
28652;SDS011;15844;48.954;9.442;2022-08-01T18:18:39;15.13;;;14.63;;